Time;durP1;ratioP1;P1;durP2;ratioP2;P2;SDS_P1;SDS_P2;PMS_P1;PMS_P2;Temp;Humidity;BMP_temperature;BMP_pressure;BME280_temperature;BME280_humidity;BME280_pressure;Samples;Min_cycle;Max_cycle;Signal;HPM_P1;HPM_P2
2023/03/03 00:02:03;;;;;;;46.10;12.68;;;3.20;99.90;;;;;;5051207;28;20045;-85
2023/03/03 00:04:29;;;;;;;52.67;12.90;;;3.20;99.90;;;;;;5043006;28;20056;-85
2023/03/03 00:06:54;;;;;;;47.08;12.05;;;3.20;99.90;;;;;;5051202;28;20094;-84
2023/03/03 00:09:20;;;;;;;28.10;11.98;;;3.10;99.90;;;;;;5034236;28;20071;-84
2023/03/03 00:11:55;;;;;;;111.68;13.32;;;3.10;99.90;;;;;;5051007;28;20377;-85
2023/03/03 00:14:31;;;;;;;88.70;14.15;;;3.10;99.90;;;;;;5050770;28;20504;-85
2023/03/03 00:17:00;;;;;;;49.85;12.38;;;3.00;99.90;;;;;;5026143;28;20091;-85
2023/03/03 00:19:26;;;;;;;98.72;12.82;;;3.00;99.90;;;;;;5049669;28;20044;-84
2023/03/03 00:21:56;;;;;;;86.30;11.60;;;2.90;99.90;;;;;;5051100;28;20462;-84
2023/03/03 00:24:35;;;;;;;82.13;12.00;;;2.80;99.90;;;;;;5050140;28;20037;-85
2023/03/03 00:27:17;;;;;;;144.13;13.50;;;2.80;99.90;;;;;;5034310;28;20123;-85
2023/03/03 00:29:51;;;;;;;109.25;11.88;;;2.70;99.90;;;;;;5050784;28;20037;-85
2023/03/03 00:32:29;;;;;;;38.40;10.70;;;2.70;99.90;;;;;;5050550;28;20041;-85
2023/03/03 00:35:01;;;;;;;63.05;11.32;;;2.70;99.90;;;;;;5050524;28;20044;-84
2023/03/03 00:37:34;;;;;;;162.10;12.32;;;2.80;99.90;;;;;;5050456;28;20072;-84
2023/03/03 00:40:20;;;;;;;153.27;12.30;;;2.70;99.90;;;;;;5033975;28;20179;-85
2023/03/03 00:42:50;;;;;;;75.40;9.75;;;2.70;99.90;;;;;;5043724;28;20043;-84
2023/03/03 00:45:27;;;;;;;61.75;9.88;;;2.70;99.90;;;;;;5049889;28;20075;-85
2023/03/03 00:47:53;;;;;;;81.68;9.65;;;2.70;99.90;;;;;;5050350;28;20032;-85
2023/03/03 00:50:32;;;;;;;178.13;12.73;;;2.70;99.90;;;;;;5050346;28;20081;-85
2023/03/03 00:53:02;;;;;;;183.13;12.60;;;2.50;99.90;;;;;;5033801;28;20040;-84
2023/03/03 00:55:29;;;;;;;83.55;9.80;;;2.50;99.90;;;;;;5049512;28;20072;-84
2023/03/03 00:57:54;;;;;;;83.25;8.77;;;2.30;99.90;;;;;;5050201;28;20547;-85
2023/03/03 01:00:20;;;;;;;101.88;10.25;;;2.20;99.90;;;;;;5050134;28;20037;-84
2023/03/03 01:02:47;;;;;;;89.60;9.13;;;2.10;99.90;;;;;;5050051;28;20063;-85
2023/03/03 01:05:14;;;;;;;91.50;9.25;;;2.10;99.90;;;;;;5029601;28;20040;-85
2023/03/03 01:07:40;;;;;;;137.73;12.43;;;2.00;99.90;;;;;;5050028;28;20048;-84
2023/03/03 01:10:06;;;;;;;101.65;9.73;;;2.00;99.90;;;;;;5050057;28;20505;-84
2023/03/03 01:12:31;;;;;;;169.10;12.50;;;2.00;99.90;;;;;;5049809;28;20112;-84
2023/03/03 01:14:57;;;;;;;53.10;9.68;;;1.90;99.90;;;;;;5049492;28;20076;-84
2023/03/03 01:17:23;;;;;;;75.28;9.98;;;1.80;99.90;;;;;;5049737;28;20047;-84
2023/03/03 01:19:48;;;;;;;87.68;9.05;;;1.80;99.90;;;;;;5033323;28;20127;-84
2023/03/03 01:22:14;;;;;;;106.50;9.77;;;1.60;99.90;;;;;;5049869;28;20445;-85
2023/03/03 01:24:40;;;;;;;106.95;9.88;;;1.60;99.90;;;;;;5028690;28;20162;-84
2023/03/03 01:27:05;;;;;;;107.32;9.90;;;1.50;99.90;;;;;;5046089;28;20029;-85
2023/03/03 01:29:31;;;;;;;78.57;9.00;;;1.40;99.90;;;;;;5049564;28;20085;-85
2023/03/03 01:31:56;;;;;;;164.05;12.20;;;1.40;99.90;;;;;;5049930;28;20032;-84
2023/03/03 01:34:22;;;;;;;119.38;10.38;;;1.30;99.90;;;;;;5049418;28;20037;-84
2023/03/03 01:36:47;;;;;;;141.23;9.75;;;1.20;99.90;;;;;;5032950;28;20037;-84
2023/03/03 01:39:13;;;;;;;111.05;8.45;;;1.10;99.90;;;;;;5049564;28;20102;-84
2023/03/03 01:41:39;;;;;;;84.40;7.37;;;1.00;99.90;;;;;;5049670;28;20132;-84
2023/03/03 01:44:04;;;;;;;95.60;7.00;;;0.90;99.90;;;;;;5032484;28;20077;-84
2023/03/03 01:46:38;;;;;;;112.40;7.13;;;0.80;99.90;;;;;;5049690;28;20052;-84
2023/03/03 01:49:11;;;;;;;79.32;7.05;;;0.80;99.90;;;;;;5033068;28;20063;-84
2023/03/03 01:51:44;;;;;;;103.40;7.82;;;0.80;99.90;;;;;;5049478;28;20082;-84
2023/03/03 01:54:16;;;;;;;105.90;8.87;;;0.70;99.90;;;;;;5049052;28;20120;-84
2023/03/03 01:56:43;;;;;;;75.37;6.80;;;0.70;99.90;;;;;;5049335;28;20556;-85
2023/03/03 01:59:12;;;;;;;95.13;7.20;;;0.70;99.90;;;;;;5041667;28;20076;-84
2023/03/03 02:01:39;;;;;;;71.33;7.43;;;0.70;99.90;;;;;;5045996;28;20041;-84
2023/03/03 02:04:04;;;;;;;95.20;8.53;;;0.70;99.90;;;;;;5048856;28;20041;-84
2023/03/03 02:06:35;;;;;;;130.27;11.33;;;0.70;99.90;;;;;;5032733;28;20381;-84
2023/03/03 02:09:16;;;;;;;90.17;7.67;;;0.60;99.90;;;;;;5049880;28;20037;-84
2023/03/03 02:11:44;;;;;;;58.13;6.93;;;0.60;99.90;;;;;;5051306;28;20029;-85
2023/03/03 02:14:10;;;;;;;78.10;7.33;;;0.60;99.90;;;;;;5052681;28;20045;-85
2023/03/03 02:16:36;;;;;;;74.77;6.77;;;0.60;99.90;;;;;;5045135;28;20044;-85
2023/03/03 02:19:05;;;;;;;95.70;8.27;;;0.50;99.90;;;;;;5036809;28;20036;-85
2023/03/03 02:21:30;;;;;;;77.37;8.13;;;0.50;99.90;;;;;;5036380;28;20040;-84
2023/03/03 02:24:23;;;;;;;62.07;6.03;;;0.50;99.90;;;;;;5052826;28;20043;-84
2023/03/03 02:26:49;;;;;;;113.30;8.53;;;0.40;99.90;;;;;;5044474;28;20041;-85
2023/03/03 02:29:14;;;;;;;40.43;5.50;;;0.30;99.90;;;;;;5052859;28;20044;-85
2023/03/03 02:31:40;;;;;;;41.00;5.13;;;0.20;99.90;;;;;;5052916;28;20029;-85
2023/03/03 02:34:05;;;;;;;32.93;5.23;;;0.10;99.90;;;;;;5052506;28;20037;-85
2023/03/03 02:36:34;;;;;;;40.20;5.03;;;0.00;99.90;;;;;;5036220;28;20041;-85
2023/03/03 02:39:20;;;;;;;37.53;4.30;;;0.00;99.90;;;;;;5053057;28;20040;-85
2023/03/03 02:41:57;;;;;;;35.17;4.10;;;-0.10;99.90;;;;;;5036264;28;20048;-84
2023/03/03 02:44:29;;;;;;;19.00;4.33;;;-0.20;99.90;;;;;;5044721;28;20051;-84
2023/03/03 02:46:56;;;;;;;14.73;4.77;;;-0.20;99.90;;;;;;5053121;28;20465;-85
2023/03/03 02:49:27;;;;;;;23.73;4.63;;;-0.20;99.90;;;;;;5052502;28;20025;-85
2023/03/03 02:51:54;;;;;;;12.47;4.60;;;-0.20;99.90;;;;;;5052500;28;20037;-84
2023/03/03 02:54:22;;;;;;;22.13;4.37;;;-0.10;99.90;;;;;;5043667;28;20132;-84
2023/03/03 02:56:48;;;;;;;25.27;4.37;;;-0.20;99.90;;;;;;5052811;28;20033;-84
2023/03/03 02:59:14;;;;;;;14.13;3.70;;;-0.20;99.90;;;;;;5035813;28;20522;-84
2023/03/03 03:01:41;;;;;;;21.17;3.60;;;-0.20;99.90;;;;;;5045075;28;20045;-84
2023/03/03 03:04:15;;;;;;;15.00;3.83;;;-0.20;99.90;;;;;;5048176;28;20072;-84
2023/03/03 03:06:41;;;;;;;12.33;3.90;;;-0.20;99.90;;;;;;5033173;28;20029;-85
2023/03/03 03:09:09;;;;;;;15.07;3.93;;;-0.20;99.90;;;;;;5052383;28;20062;-85
2023/03/03 03:11:35;;;;;;;21.23;3.87;;;-0.30;99.90;;;;;;5035365;28;20480;-84
2023/03/03 03:14:02;;;;;;;10.60;4.10;;;-0.20;99.90;;;;;;5044797;28;20045;-85
2023/03/03 03:16:28;;;;;;;18.37;4.23;;;-0.20;99.90;;;;;;5051194;28;20044;-85
2023/03/03 03:18:54;;;;;;;11.93;4.00;;;-0.20;99.90;;;;;;5052016;28;20033;-85
2023/03/03 03:21:20;;;;;;;16.90;4.47;;;-0.20;99.90;;;;;;5051953;28;20048;-84
2023/03/03 03:23:45;;;;;;;14.73;4.30;;;-0.20;99.90;;;;;;5050517;28;20033;-84
2023/03/03 03:26:12;;;;;;;23.90;4.43;;;-0.20;99.90;;;;;;5035108;28;20033;-84
2023/03/03 03:28:38;;;;;;;18.93;4.60;;;-0.20;99.90;;;;;;5049137;28;20033;-85
2023/03/03 03:31:06;;;;;;;46.17;5.23;;;-0.20;99.90;;;;;;5052070;28;20043;-84
2023/03/03 03:33:32;;;;;;;17.80;4.70;;;-0.30;99.90;;;;;;5051540;28;20037;-84
2023/03/03 03:35:58;;;;;;;30.60;4.60;;;-0.30;99.90;;;;;;5051488;28;20077;-84
2023/03/03 03:38:25;;;;;;;30.50;5.83;;;-0.20;99.90;;;;;;5051622;28;20068;-84
2023/03/03 03:40:51;;;;;;;31.70;5.30;;;-0.30;99.90;;;;;;5035309;28;20373;-84
2023/03/03 03:43:17;;;;;;;25.97;4.77;;;-0.30;99.90;;;;;;5034758;28;20048;-84
2023/03/03 03:45:43;;;;;;;24.07;5.00;;;-0.30;99.90;;;;;;5051131;28;20487;-84
2023/03/03 03:48:09;;;;;;;32.47;4.93;;;-0.40;99.90;;;;;;5051982;28;20090;-84
2023/03/03 03:50:35;;;;;;;29.67;4.93;;;-0.40;99.90;;;;;;5051147;28;20032;-84
2023/03/03 03:53:00;;;;;;;31.37;4.90;;;-0.40;99.90;;;;;;5051892;28;20439;-84
2023/03/03 03:55:26;;;;;;;33.30;5.33;;;-0.40;99.90;;;;;;5050656;28;20044;-84
2023/03/03 03:57:51;;;;;;;13.70;4.73;;;-0.40;99.90;;;;;;5035076;28;20123;-84
2023/03/03 04:00:17;;;;;;;35.63;5.40;;;-0.40;99.90;;;;;;5051398;28;20079;-84
2023/03/03 04:02:42;;;;;;;27.10;4.70;;;-0.40;99.90;;;;;;5034548;28;20036;-84
2023/03/03 04:05:09;;;;;;;14.53;4.67;;;-0.50;99.90;;;;;;5050830;28;20037;-84
2023/03/03 04:07:34;;;;;;;7.97;4.50;;;-0.50;99.90;;;;;;5034814;28;20449;-84
2023/03/03 04:10:00;;;;;;;8.50;4.63;;;-0.60;99.90;;;;;;5051195;28;20060;-84
2023/03/03 04:12:25;;;;;;;7.57;4.53;;;-0.60;99.90;;;;;;5042911;28;20523;-84
2023/03/03 04:14:51;;;;;;;7.77;4.37;;;-0.60;99.90;;;;;;5050784;28;20528;-83
2023/03/03 04:17:21;;;;;;;7.33;4.40;;;-0.70;99.90;;;;;;5051311;28;20067;-83
2023/03/03 04:19:47;;;;;;;7.40;4.00;;;-0.60;99.90;;;;;;5044159;28;20060;-83
2023/03/03 04:22:13;;;;;;;6.90;4.50;;;-0.70;99.90;;;;;;5051300;28;20130;-83
2023/03/03 04:24:39;;;;;;;6.80;4.50;;;-0.70;99.90;;;;;;5050704;28;20143;-83
2023/03/03 04:27:05;;;;;;;6.63;4.37;;;-0.70;99.90;;;;;;5051250;28;20037;-83
2023/03/03 04:29:31;;;;;;;6.77;4.27;;;-0.70;99.90;;;;;;5050787;28;20041;-83
2023/03/03 04:31:56;;;;;;;6.60;4.30;;;-0.70;99.90;;;;;;5050832;28;20044;-83
2023/03/03 04:34:22;;;;;;;7.50;4.23;;;-0.70;99.90;;;;;;5050193;28;20048;-82
2023/03/03 04:36:47;;;;;;;6.77;4.20;;;-0.70;99.90;;;;;;5050818;28;20033;-82
2023/03/03 04:39:13;;;;;;;7.33;4.33;;;-0.60;99.90;;;;;;5034566;28;20077;-83
2023/03/03 04:41:38;;;;;;;6.67;4.23;;;-0.60;99.90;;;;;;5050983;28;20047;-82
2023/03/03 04:44:04;;;;;;;6.63;4.17;;;-0.60;99.90;;;;;;5042980;28;20045;-82
2023/03/03 04:46:30;;;;;;;6.43;4.10;;;-0.60;99.90;;;;;;5050979;28;20076;-83
2023/03/03 04:48:55;;;;;;;7.07;4.00;;;-0.60;99.90;;;;;;5050597;28;20044;-82
2023/03/03 04:51:21;;;;;;;5.33;3.50;;;-0.70;99.90;;;;;;5039528;28;20040;-82
2023/03/03 04:53:47;;;;;;;5.73;3.90;;;-0.70;99.90;;;;;;5050599;28;20037;-82
2023/03/03 04:56:13;;;;;;;5.87;4.07;;;-0.70;99.90;;;;;;5050257;28;20044;-82
2023/03/03 04:58:38;;;;;;;6.37;4.20;;;-0.70;99.90;;;;;;5050754;28;20052;-82
2023/03/03 05:01:04;;;;;;;6.50;3.97;;;-0.70;99.90;;;;;;5050771;28;20271;-81
2023/03/03 05:03:30;;;;;;;8.23;4.90;;;-0.70;99.90;;;;;;5050302;28;20040;-83
2023/03/03 05:05:55;;;;;;;6.70;4.30;;;-0.70;99.90;;;;;;5050113;28;20417;-82
2023/03/03 05:08:21;;;;;;;6.57;4.07;;;-0.70;99.90;;;;;;5043447;28;20037;-82
2023/03/03 05:10:51;;;;;;;6.13;4.03;;;-0.70;99.90;;;;;;5046320;28;20635;-82
2023/03/03 05:13:17;;;;;;;6.10;4.00;;;-0.70;99.90;;;;;;5031338;28;20041;-81
2023/03/03 05:15:47;;;;;;;6.13;4.07;;;-0.80;99.90;;;;;;5033278;28;20120;-81
2023/03/03 05:18:13;;;;;;;6.30;4.10;;;-0.80;99.90;;;;;;5050211;28;20041;-81
2023/03/03 05:20:40;;;;;;;5.70;4.00;;;-0.80;99.90;;;;;;5050477;28;20678;-81
2023/03/03 05:23:06;;;;;;;5.47;3.93;;;-0.90;99.90;;;;;;5050291;28;20045;-81
2023/03/03 05:25:31;;;;;;;5.30;3.73;;;-0.90;99.90;;;;;;5049738;28;20412;-81
2023/03/03 05:27:58;;;;;;;6.07;3.93;;;-0.80;99.90;;;;;;5050455;28;20463;-81
2023/03/03 05:30:23;;;;;;;5.93;4.13;;;-0.80;99.90;;;;;;5050482;28;20458;-81
2023/03/03 05:32:49;;;;;;;6.40;4.50;;;-0.80;99.90;;;;;;5050275;28;20033;-81
2023/03/03 05:35:14;;;;;;;7.07;4.63;;;-0.80;99.90;;;;;;5049961;28;20094;-81
2023/03/03 05:37:45;;;;;;;7.50;4.50;;;-0.90;99.90;;;;;;5050156;28;20041;-81
2023/03/03 05:40:12;;;;;;;5.73;4.10;;;-0.90;99.90;;;;;;5050071;28;20044;-81
2023/03/03 05:42:37;;;;;;;6.50;4.60;;;-1.00;99.90;;;;;;5042446;28;20079;-81
2023/03/03 05:45:03;;;;;;;6.67;4.67;;;-1.00;99.90;;;;;;5050121;28;20115;-81
2023/03/03 05:47:29;;;;;;;7.00;4.80;;;-1.10;99.90;;;;;;5037028;28;20060;-81
2023/03/03 05:49:54;;;;;;;7.27;4.73;;;-1.00;99.90;;;;;;5037678;28;20480;-81
2023/03/03 05:52:20;;;;;;;7.90;5.30;;;-1.10;99.90;;;;;;5037712;28;20197;-81
2023/03/03 05:54:46;;;;;;;7.63;4.83;;;-1.10;99.90;;;;;;5054330;28;20048;-81
2023/03/03 05:57:11;;;;;;;7.23;4.73;;;-1.10;99.90;;;;;;5046360;28;20048;-80
2023/03/03 05:59:37;;;;;;;10.47;5.00;;;-1.10;99.90;;;;;;5054363;28;20044;-81
2023/03/03 06:02:02;;;;;;;7.90;4.70;;;-1.20;99.90;;;;;;5054191;28;20124;-80
2023/03/03 06:04:28;;;;;;;7.77;5.07;;;-1.10;99.90;;;;;;5053294;28;20484;-81
2023/03/03 06:06:53;;;;;;;6.93;4.80;;;-1.10;99.90;;;;;;5046123;28;20575;-81
2023/03/03 06:09:19;;;;;;;8.80;5.43;;;-1.10;99.90;;;;;;5036724;28;20040;-80
2023/03/03 06:11:45;;;;;;;7.97;5.17;;;-1.10;99.90;;;;;;5047404;28;20028;-80
2023/03/03 06:14:10;;;;;;;9.07;5.37;;;-1.10;99.90;;;;;;5036874;28;20047;-80
2023/03/03 06:16:36;;;;;;;10.23;5.10;;;-1.10;99.90;;;;;;5054079;28;20404;-81
2023/03/03 06:19:02;;;;;;;8.20;5.13;;;-1.10;99.90;;;;;;5037289;28;20036;-81
2023/03/03 06:21:27;;;;;;;8.03;5.33;;;-1.10;99.90;;;;;;5054413;28;20072;-81
2023/03/03 06:23:53;;;;;;;7.23;5.20;;;-1.20;99.90;;;;;;5054232;28;20041;-81
2023/03/03 06:26:18;;;;;;;7.37;5.00;;;-1.20;99.90;;;;;;5053515;28;20036;-81
2023/03/03 06:28:44;;;;;;;8.20;4.90;;;-1.20;99.90;;;;;;5053915;28;20029;-81
2023/03/03 06:31:09;;;;;;;8.70;5.03;;;-1.30;99.90;;;;;;5053961;28;20087;-81
2023/03/03 06:33:37;;;;;;;8.20;5.37;;;-1.30;99.90;;;;;;5037045;28;20190;-81
2023/03/03 06:36:03;;;;;;;7.90;5.40;;;-1.20;99.90;;;;;;5053040;28;20076;-81
2023/03/03 06:38:28;;;;;;;9.53;5.70;;;-1.30;99.90;;;;;;5053874;28;20072;-82
2023/03/03 06:40:54;;;;;;;9.03;5.83;;;-1.30;99.90;;;;;;5047481;28;20053;-82
2023/03/03 06:43:19;;;;;;;7.83;5.17;;;-1.30;99.90;;;;;;5033373;28;20053;-82
2023/03/03 06:45:45;;;;;;;9.50;5.67;;;-1.20;99.90;;;;;;5036185;28;20033;-82
2023/03/03 06:48:11;;;;;;;10.00;5.93;;;-1.10;99.90;;;;;;5053097;28;20389;-82
2023/03/03 06:50:38;;;;;;;8.83;5.80;;;-1.10;99.90;;;;;;5054611;28;20037;-82
2023/03/03 06:53:11;;;;;;;7.87;4.90;;;-1.10;99.90;;;;;;5045949;28;20053;-82
2023/03/03 06:55:37;;;;;;;8.35;5.38;;;-1.10;99.90;;;;;;5044581;28;20063;-82
2023/03/03 06:58:13;;;;;;;10.93;6.20;;;-1.00;99.90;;;;;;5028449;28;20041;-82
2023/03/03 07:00:42;;;;;;;11.20;7.70;;;-0.90;99.90;;;;;;5041830;28;20076;-82
2023/03/03 07:03:14;;;;;;;10.90;7.13;;;-0.80;99.90;;;;;;5049606;28;20044;-83
2023/03/03 07:05:40;;;;;;;10.07;6.70;;;-0.70;99.90;;;;;;5044845;28;20089;-83
2023/03/03 07:08:15;;;;;;;9.37;6.27;;;-0.90;99.90;;;;;;5052592;28;20033;-84
2023/03/03 07:10:41;;;;;;;10.13;6.10;;;-0.60;99.90;;;;;;5051044;28;20451;-83
2023/03/03 07:13:15;;;;;;;9.97;6.20;;;-0.60;99.90;;;;;;5037610;28;20033;-83
2023/03/03 07:15:41;;;;;;;9.17;5.80;;;-0.50;99.90;;;;;;5048805;28;20044;-84
2023/03/03 07:18:36;;;;;;;9.47;6.03;;;-0.50;99.90;;;;;;5052560;28;20045;-83
2023/03/03 07:21:18;;;;;;;10.47;6.90;;;-0.60;99.90;;;;;;5034665;28;20124;-83
2023/03/03 07:23:46;;;;;;;9.90;6.93;;;-0.60;99.90;;;;;;5051872;28;20047;-83
2023/03/03 07:26:21;;;;;;;11.83;7.10;;;-0.60;99.90;;;;;;5043044;28;20037;-82
2023/03/03 07:28:53;;;;;;;11.37;7.10;;;-0.60;99.90;;;;;;5034815;28;20555;-82
2023/03/03 07:31:34;;;;;;;11.57;6.87;;;-0.50;99.90;;;;;;5050817;28;20108;-82
2023/03/03 07:34:01;;;;;;;12.87;7.53;;;-0.40;99.90;;;;;;5043215;28;20046;-83
2023/03/03 07:36:30;;;;;;;9.57;6.90;;;-0.20;99.90;;;;;;5051146;28;20488;-82
2023/03/03 07:39:00;;;;;;;12.13;7.30;;;-0.10;99.90;;;;;;5030814;28;20044;-82
2023/03/03 07:41:27;;;;;;;12.00;6.73;;;0.10;99.90;;;;;;5033562;28;20029;-83
2023/03/03 07:44:06;;;;;;;10.83;6.40;;;0.20;99.90;;;;;;5050513;28;20045;-82
2023/03/03 07:46:47;;;;;;;11.20;6.80;;;0.20;99.90;;;;;;5050900;28;20045;-83
2023/03/03 07:49:30;;;;;;;9.33;6.50;;;0.20;99.90;;;;;;5034354;28;20044;-84
2023/03/03 07:51:58;;;;;;;9.73;6.15;;;0.20;99.90;;;;;;5029067;28;20162;-83
2023/03/03 07:54:34;;;;;;;10.30;6.00;;;0.20;99.90;;;;;;5050535;28;20553;-83
2023/03/03 07:57:08;;;;;;;11.43;7.13;;;0.30;99.90;;;;;;5034384;28;20743;-84
2023/03/03 07:59:35;;;;;;;10.43;6.30;;;0.30;99.90;;;;;;5050911;28;20064;-83
2023/03/03 08:02:01;;;;;;;12.73;6.90;;;0.40;99.90;;;;;;5051006;28;20045;-81
2023/03/03 08:04:34;;;;;;;11.37;6.73;;;0.40;99.90;;;;;;5049981;28;20515;-81
2023/03/03 08:07:01;;;;;;;9.50;6.53;;;0.40;99.90;;;;;;5050918;28;20045;-81
2023/03/03 08:09:41;;;;;;;12.67;7.17;;;0.50;99.90;;;;;;5049878;28;20041;-82
2023/03/03 08:12:07;;;;;;;11.87;7.27;;;0.50;99.90;;;;;;5047402;28;20041;-82
2023/03/03 08:14:35;;;;;;;11.20;7.17;;;0.60;99.90;;;;;;5032540;28;20044;-81
2023/03/03 08:17:06;;;;;;;13.43;7.87;;;0.50;99.90;;;;;;5050127;28;20049;-82
2023/03/03 08:19:33;;;;;;;15.10;9.17;;;0.50;99.90;;;;;;5050565;28;20037;-81
2023/03/03 08:22:08;;;;;;;10.80;6.97;;;0.50;99.90;;;;;;5050417;28;20178;-81
2023/03/03 08:24:34;;;;;;;11.47;7.07;;;0.60;99.90;;;;;;5050265;28;20083;-81
2023/03/03 08:26:59;;;;;;;11.80;7.40;;;0.60;99.90;;;;;;5050372;28;20156;-82
2023/03/03 08:29:25;;;;;;;10.37;6.77;;;0.60;99.90;;;;;;5048459;28;20116;-82
2023/03/03 08:31:50;;;;;;;10.43;7.17;;;0.70;99.90;;;;;;5045721;28;20040;-82
2023/03/03 08:34:16;;;;;;;9.47;6.50;;;0.70;99.90;;;;;;5049990;28;20278;-81
2023/03/03 08:36:41;;;;;;;11.53;7.07;;;0.80;99.90;;;;;;5046111;28;20429;-81
2023/03/03 08:39:08;;;;;;;10.80;6.80;;;0.80;99.90;;;;;;5032032;28;20037;-81
2023/03/03 08:41:33;;;;;;;10.60;6.43;;;0.80;99.90;;;;;;5050555;28;20123;-81
2023/03/03 08:43:59;;;;;;;12.07;7.23;;;0.80;99.90;;;;;;5049964;28;20123;-81
2023/03/03 08:46:24;;;;;;;10.03;6.47;;;0.90;99.90;;;;;;5050304;28;20120;-81
2023/03/03 08:49:03;;;;;;;11.07;7.67;;;0.90;99.90;;;;;;5049989;28;20051;-80
2023/03/03 08:51:33;;;;;;;12.43;8.37;;;0.90;99.90;;;;;;5050347;28;20048;-80
2023/03/03 08:53:59;;;;;;;12.17;8.17;;;1.00;99.90;;;;;;5049831;28;20120;-84
2023/03/03 08:56:24;;;;;;;14.07;8.47;;;1.00;99.90;;;;;;5032433;28;20180;-84
2023/03/03 08:58:50;;;;;;;9.93;7.23;;;1.00;99.90;;;;;;5032891;28;20404;-84
2023/03/03 09:01:16;;;;;;;11.83;7.57;;;1.10;99.90;;;;;;5033310;28;20389;-83
2023/03/03 09:03:42;;;;;;;10.13;6.97;;;1.20;99.90;;;;;;5050274;28;20153;-83
2023/03/03 09:06:08;;;;;;;12.80;8.03;;;1.30;99.90;;;;;;5049865;28;20045;-83
2023/03/03 09:08:33;;;;;;;12.47;8.20;;;1.30;99.90;;;;;;5043184;28;20503;-83
2023/03/03 09:10:59;;;;;;;10.93;8.10;;;1.40;99.90;;;;;;5044262;28;20068;-83
2023/03/03 09:13:27;;;;;;;13.37;8.00;;;1.50;99.90;;;;;;5050082;28;20052;-83
2023/03/03 09:15:53;;;;;;;10.67;7.40;;;1.50;99.90;;;;;;5047195;28;20052;-83
2023/03/03 09:18:21;;;;;;;16.13;8.20;;;1.60;99.90;;;;;;5049745;28;20546;-83
2023/03/03 09:20:56;;;;;;;10.90;6.90;;;1.70;99.90;;;;;;5032769;28;20084;-84
2023/03/03 09:23:37;;;;;;;11.00;7.17;;;1.80;99.90;;;;;;5032848;28;20456;-84
2023/03/03 09:26:26;;;;;;;11.70;7.60;;;1.90;99.90;;;;;;5031765;28;20069;-84
2023/03/03 09:29:06;;;;;;;11.77;7.10;;;2.00;99.90;;;;;;5030828;28;20496;-84
2023/03/03 09:32:12;;;;;;;11.47;7.60;;;2.10;99.90;;;;;;5040672;28;20036;-84
2023/03/03 09:34:41;;;;;;;13.20;7.63;;;2.20;99.90;;;;;;5045132;28;20420;-84
2023/03/03 09:37:21;;;;;;;10.60;7.57;;;2.30;99.90;;;;;;5049786;28;20052;-84
2023/03/03 09:39:52;;;;;;;11.13;7.27;;;2.40;99.90;;;;;;5049708;28;20041;-84
2023/03/03 09:42:32;;;;;;;10.83;6.90;;;2.60;99.90;;;;;;5049484;28;20512;-84
2023/03/03 09:45:05;;;;;;;12.03;8.10;;;2.70;99.90;;;;;;5027680;28;20069;-84
2023/03/03 09:47:42;;;;;;;12.50;7.18;;;2.80;99.90;;;;;;5033200;28;20043;-84
2023/03/03 09:50:26;;;;;;;12.77;7.83;;;3.00;99.90;;;;;;5050231;28;20451;-85
2023/03/03 09:53:24;;;;;;;10.57;6.80;;;3.20;99.90;;;;;;5032824;28;20040;-84
2023/03/03 09:56:14;;;;;;;11.40;6.68;;;3.40;99.90;;;;;;5043255;28;20090;-83
2023/03/03 09:58:53;;;;;;;10.93;6.70;;;3.50;99.90;;;;;;5033050;28;20046;-83
2023/03/03 10:01:47;;;;;;;10.57;6.30;;;3.70;99.90;;;;;;5046960;28;20041;-83
2023/03/03 10:04:41;;;;;;;10.68;5.97;;;3.90;99.90;;;;;;5015253;28;20045;-84
2023/03/03 10:07:18;;;;;;;31.67;6.45;;;3.90;99.90;;;;;;5032462;28;20037;-84
2023/03/03 10:10:08;;;;;;;10.68;6.05;;;4.10;99.90;;;;;;5039100;28;20037;-84
2023/03/03 10:13:01;;;;;;;11.05;6.82;;;4.20;99.90;;;;;;5038659;28;20455;-84
2023/03/03 10:15:42;;;;;;;11.80;6.82;;;4.30;99.90;;;;;;5040553;28;20090;-84
2023/03/03 10:18:48;;;;;;;8.27;6.00;;;4.40;99.90;;;;;;5026968;28;20038;-84
2023/03/03 10:21:38;;;;;;;7.32;5.95;;;4.60;99.90;;;;;;5038457;28;20044;-83
2023/03/03 10:24:23;;;;;;;7.95;5.70;;;4.70;99.90;;;;;;5037198;28;20189;-84
2023/03/03 10:27:25;;;;;;;12.90;6.13;;;4.90;99.90;;;;;;5049739;28;20519;-84
2023/03/03 10:29:59;;;;;;;9.43;5.72;;;5.00;99.90;;;;;;5037750;28;20029;-83
2023/03/03 10:32:34;;;;;;;9.40;5.78;;;5.10;99.90;;;;;;5024101;28;20065;-84
2023/03/03 10:35:14;;;;;;;12.07;6.60;;;5.30;99.90;;;;;;5039657;28;20452;-85
2023/03/03 10:37:58;;;;;;;11.75;6.13;;;5.30;99.90;;;;;;5057271;28;20041;-84
2023/03/03 10:40:43;;;;;;;;;;;5.40;99.90;;;;;;5042980;28;20532;-84
2023/03/03 10:43:26;;;;;;;9.73;5.43;;;5.60;99.90;;;;;;5051150;28;19917;-84
2023/03/03 10:46:12;;;;;;;9.43;5.38;;;5.70;99.90;;;;;;5035889;28;20041;-84
2023/03/03 10:49:02;;;;;;;9.07;5.03;;;5.80;99.90;;;;;;5051429;28;20522;-84
2023/03/03 10:51:36;;;;;;;14.57;5.13;;;5.90;99.90;;;;;;5036610;28;20040;-84
2023/03/03 10:54:19;;;;;;;4.95;3.25;;;6.10;99.90;;;;;;5052112;28;20059;-84
2023/03/03 10:57:12;;;;;;;5.03;2.80;;;6.30;99.90;;;;;;5051603;28;20037;-84
2023/03/03 10:59:44;;;;;;;4.72;3.17;;;6.40;99.90;;;;;;5041623;28;20044;-84
2023/03/03 11:02:38;;;;;;;4.43;2.70;;;6.40;99.90;;;;;;5038925;28;20033;-84
2023/03/03 11:05:28;;;;;;;5.15;1.70;;;6.50;99.90;;;;;;5040767;28;20132;-84
2023/03/03 11:08:01;;;;;;;6.85;1.50;;;6.50;99.90;;;;;;5025835;28;20068;-83
2023/03/03 11:10:38;;;;;;;2.47;1.02;;;6.60;99.90;;;;;;5045835;28;20033;-83
2023/03/03 11:13:36;;;;;;;3.47;0.85;;;6.60;99.90;;;;;;5040902;28;20057;-84
2023/03/03 11:16:15;;;;;;;4.10;1.15;;;6.60;99.90;;;;;;5044691;28;20041;-82
2023/03/03 11:19:00;;;;;;;3.40;0.80;;;6.60;99.90;;;;;;5038459;28;20056;-84
2023/03/03 11:21:49;;;;;;;3.92;1.25;;;6.60;99.90;;;;;;5048716;28;20469;-85
2023/03/03 11:24:28;;;;;;;3.50;1.05;;;6.60;99.90;;;;;;5043059;28;20052;-84
2023/03/03 11:26:59;;;;;;;1.95;0.90;;;6.60;99.90;;;;;;5040972;28;20037;-84
2023/03/03 11:29:39;;;;;;;5.22;1.10;;;6.60;99.90;;;;;;5044582;28;20048;-84
2023/03/03 11:32:21;;;;;;;5.28;1.38;;;6.70;99.90;;;;;;5044611;28;20040;-83
2023/03/03 11:35:11;;;;;;;5.20;1.58;;;6.70;99.90;;;;;;5052034;28;20033;-83
2023/03/03 11:37:47;;;;;;;1.02;0.60;;;6.80;99.90;;;;;;5042345;28;20037;-83
2023/03/03 11:40:20;;;;;;;4.28;0.85;;;6.70;99.90;;;;;;5050495;28;20041;-84
2023/03/03 11:43:17;;;;;;;1.95;0.80;;;7.00;99.90;;;;;;5033556;28;20115;-82
2023/03/03 11:45:50;;;;;;;2.85;0.70;;;6.50;99.90;;;;;;5043971;28;20038;-83
2023/03/03 11:48:25;;;;;;;2.22;0.80;;;6.70;99.90;;;;;;5045758;28;20041;-84
2023/03/03 11:50:59;;;;;;;3.00;0.80;;;6.80;99.90;;;;;;5042265;28;20030;-84
2023/03/03 11:53:39;;;;;;;;;;;7.00;99.90;;;;;;5045762;28;20041;-84
2023/03/03 11:56:38;;;;;;;1.55;0.70;;;7.10;99.90;;;;;;5039226;28;19971;-84
2023/03/03 11:59:25;;;;;;;3.10;0.80;;;7.20;99.90;;;;;;5033923;28;20263;-83
2023/03/03 12:02:27;;;;;;;6.25;1.02;;;7.10;99.90;;;;;;5048440;28;20081;-82
2023/03/03 12:04:54;;;;;;;2.83;0.65;;;7.10;99.90;;;;;;5033086;28;20041;-85
2023/03/03 12:07:55;;;;;;;2.72;0.82;;;7.10;99.90;;;;;;5047884;28;20443;-83
2023/03/03 12:10:34;;;;;;;1.42;0.70;;;7.30;99.90;;;;;;5032503;28;20416;-83
2023/03/03 12:13:11;;;;;;;4.72;0.70;;;7.30;99.90;;;;;;5031231;28;20099;-84
2023/03/03 12:15:47;;;;;;;3.08;1.10;;;7.30;99.90;;;;;;5049033;28;20120;-84
2023/03/03 12:18:37;;;;;;;6.45;1.17;;;7.40;99.90;;;;;;5044677;28;20041;-84
2023/03/03 12:21:24;;;;;;;4.57;1.02;;;7.50;99.90;;;;;;5049462;28;20513;-83
2023/03/03 12:24:12;;;;;;;4.80;0.90;;;7.50;99.90;;;;;;5036721;28;20472;-83
2023/03/03 12:27:11;;;;;;;3.15;1.02;;;7.40;99.90;;;;;;5032121;28;20461;-84
2023/03/03 12:30:05;;;;;;;4.60;1.00;;;7.50;99.90;;;;;;5036627;28;20079;-84
2023/03/03 12:32:47;;;;;;;5.50;1.17;;;7.60;99.90;;;;;;5050262;28;20041;-84
2023/03/03 12:35:34;;;;;;;5.25;1.02;;;7.70;99.90;;;;;;5049249;28;20040;-84
2023/03/03 12:38:24;;;;;;;4.47;1.40;;;7.70;99.90;;;;;;5048854;28;20043;-83
2023/03/03 12:41:22;;;;;;;5.28;1.42;;;7.60;99.90;;;;;;5040132;28;20137;-84
2023/03/03 12:44:19;;;;;;;4.07;0.90;;;7.50;99.90;;;;;;5029837;28;20055;-83
2023/03/03 12:46:51;;;;;;;5.25;1.00;;;7.50;99.90;;;;;;5032555;28;20504;-84
2023/03/03 12:49:16;;;;;;;6.55;1.10;;;7.50;99.90;;;;;;5032720;28;20037;-84
2023/03/03 12:52:07;;;;;;;4.78;1.00;;;7.60;99.90;;;;;;5025390;28;20048;-83
2023/03/03 12:55:05;;;;;;;4.80;1.10;;;7.90;99.90;;;;;;5047994;28;21824;-84
2023/03/03 12:57:49;;;;;;;5.65;1.10;;;8.10;99.90;;;;;;5047785;28;20487;-82
2023/03/03 13:00:40;;;;;;;4.72;1.20;;;8.00;99.90;;;;;;5033832;28;20538;-83
2023/03/03 13:03:16;;;;;;;6.80;1.38;;;7.90;99.90;;;;;;5050273;28;20037;-84
2023/03/03 13:05:55;;;;;;;6.55;1.48;;;7.80;99.90;;;;;;5047480;28;20033;-84
2023/03/03 13:08:53;;;;;;;7.07;1.70;;;7.80;99.90;;;;;;5034333;28;20052;-84
2023/03/03 13:11:32;;;;;;;9.50;1.52;;;7.70;99.90;;;;;;5043768;28;20082;-84
2023/03/03 13:14:21;;;;;;;8.32;1.13;;;7.60;99.90;;;;;;5031697;28;20106;-88